Time;durP1;ratioP1;P1;durP2;ratioP2;P2;SDS_P1;SDS_P2;PMS_P1;PMS_P2;Temp;Humidity;BMP_temperature;BMP_pressure;BME280_temperature;BME280_humidity;BME280_pressure;Samples;Min_cycle;Max_cycle;Signal;HPM_P1;HPM_P2
2023/04/25 01:41:52;;;;;;;;;;;21.00;36.50;;;;;;2892287;19;50705;-68
2023/04/25 01:42:53;;;;;;;;;;;20.90;45.20;;;;;;3050113;19;4855;-72
2023/04/25 01:43:54;;;;;;;;;;;20.90;45.20;;;;;;3054978;19;4930;-72
2023/04/25 01:44:55;;;;;;;;;;;20.90;45.20;;;;;;3056539;19;4877;-72
2023/04/25 01:45:56;;;;;;;;;;;20.90;45.90;;;;;;3056150;19;4977;-73
2023/04/25 01:46:57;;;;;;;;;;;20.90;45.20;;;;;;3056205;19;5274;-73
2023/04/25 01:47:59;;;;;;;;;;;20.90;45.20;;;;;;3057078;19;6158;-72
2023/04/25 01:48:59;;;;;;;;;;;21.10;45.40;;;;;;3058264;19;4350;-73
2023/04/25 01:50:02;;;;;;;;;;;20.90;45.20;;;;;;3056078;19;5045;-71
2023/04/25 01:51:02;;;;;;;;;;;20.90;45.20;;;;;;3056740;19;4360;-72
2023/04/25 01:52:03;;;;;;;;;;;20.90;45.20;;;;;;3056717;19;4949;-72
2023/04/25 01:53:04;;;;;;;;;;;20.90;45.20;;;;;;3057890;19;4467;-71
2023/04/25 01:54:05;;;;;;;;;;;20.70;45.80;;;;;;3059144;19;4338;-72
2023/04/25 01:55:06;;;;;;;;;;;20.90;45.20;;;;;;3059410;19;4800;-72
2023/04/25 01:56:06;;;;;;;;;;;20.80;45.10;;;;;;3065647;19;4854;-72
2023/04/25 01:57:07;;;;;;;;;;;20.80;45.10;;;;;;3073178;19;4567;-74
2023/04/25 01:58:09;;;;;;;;;;;20.90;45.20;;;;;;3073607;19;4571;-73
2023/04/25 01:59:10;;;;;;;;;;;20.80;45.10;;;;;;3072943;19;5103;-72
2023/04/25 02:00:11;;;;;;;;;;;20.90;45.10;;;;;;3072920;19;4925;-73
2023/04/25 02:01:12;;;;;;;;;;;20.80;45.10;;;;;;3073123;19;4435;-72
2023/04/25 02:02:12;;;;;;;;;;;20.80;45.10;;;;;;3073720;19;5086;-73
2023/04/25 02:03:13;;;;;;;;;;;20.80;45.00;;;;;;3073533;19;5035;-73
2023/04/25 02:04:14;;;;;;;;;;;20.80;45.10;;;;;;3074478;19;1054;-74
2023/04/25 02:05:15;;;;;;;;;;;20.80;45.10;;;;;;3073245;19;4802;-75
2023/04/25 02:06:15;;;;;;;;;;;20.80;45.10;;;;;;3073171;19;4994;-71
2023/04/25 02:07:16;;;;;;;;;;;20.80;45.10;;;;;;3073469;19;4993;-73
2023/04/25 02:08:18;;;;;;;;;;;20.80;45.10;;;;;;3073961;19;5094;-75
2023/04/25 02:09:19;;;;;;;;;;;20.80;45.10;;;;;;3073415;19;4989;-71
2023/04/25 02:10:20;;;;;;;;;;;20.80;45.00;;;;;;3072244;19;4570;-72
2023/04/25 02:11:21;;;;;;;;;;;20.80;45.10;;;;;;3073467;19;5437;-71
2023/04/25 02:12:21;;;;;;;;;;;20.80;45.00;;;;;;3072374;19;5004;-72
2023/04/25 02:13:22;;;;;;;;;;;20.80;45.10;;;;;;3072631;19;5030;-72
2023/04/25 02:14:23;;;;;;;;;;;20.80;45.10;;;;;;3072706;19;4915;-71
2023/04/25 02:15:23;;;;;;;;;;;20.80;45.10;;;;;;3066266;19;4945;-72
2023/04/25 02:16:25;;;;;;;;;;;20.80;45.10;;;;;;3060775;19;4514;-72
2023/04/25 02:17:26;;;;;;;;;;;20.80;45.10;;;;;;3060094;19;5155;-72
2023/04/25 02:18:26;;;;;;;;;;;20.80;45.10;;;;;;3059863;19;5265;-72
2023/04/25 02:19:27;;;;;;;;;;;20.80;45.10;;;;;;3058400;19;4374;-71
2023/04/25 02:20:29;;;;;;;;;;;20.80;45.10;;;;;;3057232;19;4637;-72
2023/04/25 02:21:30;;;;;;;;;;;20.80;45.10;;;;;;3056077;19;4984;-72
2023/04/25 02:22:31;;;;;;;;;;;20.80;45.10;;;;;;3055552;19;5101;-72
2023/04/25 02:23:32;;;;;;;;;;;20.80;45.20;;;;;;3054973;19;5075;-72
2023/04/25 02:24:33;;;;;;;;;;;20.80;45.10;;;;;;3053774;19;4834;-73
2023/04/25 02:25:34;;;;;;;;;;;20.80;45.00;;;;;;3053558;19;6023;-73
2023/04/25 02:26:34;;;;;;;;;;;20.70;44.90;;;;;;3053344;19;4971;-71
2023/04/25 02:27:35;;;;;;;;;;;20.70;45.00;;;;;;3053684;19;4849;-72
2023/04/25 02:28:36;;;;;;;;;;;20.70;45.00;;;;;;3055541;19;4911;-73
2023/04/25 02:29:36;;;;;;;;;;;20.70;45.00;;;;;;3054548;19;4404;-73
2023/04/25 02:30:37;;;;;;;;;;;20.70;45.10;;;;;;3054516;19;5859;-72
2023/04/25 02:31:39;;;;;;;;;;;20.70;44.90;;;;;;3054393;19;4976;-73
2023/04/25 02:32:40;;;;;;;;;;;20.70;45.00;;;;;;3053026;19;6831;-70
2023/04/25 02:33:40;;;;;;;;;;;20.70;45.10;;;;;;3051476;19;5377;-72
2023/04/25 02:34:41;;;;;;;;;;;20.70;45.00;;;;;;3053526;19;4892;-73
2023/04/25 02:35:42;;;;;;;;;;;20.70;44.90;;;;;;3053914;19;4952;-72
2023/04/25 02:36:42;;;;;;;;;;;20.70;45.00;;;;;;3051546;19;4884;-73
2023/04/25 02:37:43;;;;;;;;;;;20.70;45.00;;;;;;3052690;19;4972;-73
2023/04/25 02:38:44;;;;;;;;;;;20.70;44.90;;;;;;3052424;19;4791;-71
2023/04/25 02:39:44;;;;;;;;;;;20.70;44.90;;;;;;3052393;19;4443;-73
2023/04/25 02:40:45;;;;;;;;;;;20.70;44.90;;;;;;3053220;19;4445;-71
2023/04/25 02:41:46;;;;;;;;;;;20.70;44.90;;;;;;3053033;19;4521;-72
2023/04/25 02:42:46;;;;;;;;;;;20.70;45.00;;;;;;3053431;19;5000;-72
2023/04/25 02:43:47;;;;;;;;;;;20.70;45.00;;;;;;3053012;19;4989;-72
2023/04/25 02:44:48;;;;;;;;;;;20.70;44.90;;;;;;3053138;19;4821;-72
2023/04/25 02:45:49;;;;;;;;;;;20.70;44.90;;;;;;3052098;19;5016;-73
2023/04/25 02:46:49;;;;;;;;;;;20.70;44.90;;;;;;3053291;19;5103;-74
2023/04/25 02:47:50;;;;;;;;;;;20.70;44.90;;;;;;3052571;19;4452;-71
2023/04/25 02:48:50;;;;;;;;;;;20.70;44.80;;;;;;3053923;19;4460;-73
2023/04/25 02:49:51;;;;;;;;;;;20.70;45.50;;;;;;3054335;19;4422;-72
2023/04/25 02:50:52;;;;;;;;;;;20.70;44.90;;;;;;3054218;19;4431;-72
2023/04/25 02:51:52;;;;;;;;;;;20.70;44.90;;;;;;3051928;19;4798;-73
2023/04/25 02:52:53;;;;;;;;;;;20.70;44.90;;;;;;3052458;19;4914;-73
2023/04/25 02:53:54;;;;;;;;;;;20.70;44.90;;;;;;3052066;19;4877;-71
2023/04/25 02:54:54;;;;;;;;;;;20.70;44.90;;;;;;3051086;19;5825;-75
2023/04/25 02:55:58;;;;;;;;;;;20.70;44.80;;;;;;3050998;19;5879;-76
2023/04/25 02:56:58;;;;;;;;;;;20.70;44.80;;;;;;3051219;19;4386;-75
2023/04/25 02:57:59;;;;;;;;;;;20.70;44.80;;;;;;3050894;19;4932;-78
2023/04/25 02:59:00;;;;;;;;;;;20.60;44.70;;;;;;3050093;19;5023;-77
2023/04/25 03:00:00;;;;;;;;;;;20.60;44.70;;;;;;3050524;19;6034;-75
2023/04/25 03:01:01;;;;;;;;;;;20.70;44.80;;;;;;3049471;19;5042;-76
2023/04/25 03:02:01;;;;;;;;;;;20.70;44.80;;;;;;3051171;19;4418;-76
2023/04/25 03:03:02;;;;;;;;;;;20.60;44.70;;;;;;3051688;19;4858;-77
2023/04/25 03:04:03;;;;;;;;;;;20.60;44.80;;;;;;3052501;19;4958;-75
2023/04/25 03:05:04;;;;;;;;;;;20.60;44.70;;;;;;3051218;19;4442;-68
2023/04/25 03:06:05;;;;;;;;;;;20.60;44.80;;;;;;3050593;19;5311;-69
2023/04/25 03:07:06;;;;;;;;;;;20.60;44.70;;;;;;3050686;19;20374;-70
2023/04/25 03:08:07;;;;;;;;;;;20.60;44.70;;;;;;3049540;19;4913;-71
2023/04/25 03:09:07;;;;;;;;;;;20.60;44.70;;;;;;3049044;19;4390;-70
2023/04/25 03:10:08;;;;;;;;;;;20.60;44.70;;;;;;3049631;19;4632;-69
2023/04/25 03:11:10;;;;;;;;;;;20.60;44.60;;;;;;3049879;19;5334;-69
2023/04/25 03:12:10;;;;;;;;;;;20.60;44.70;;;;;;3050514;19;4996;-69
2023/04/25 03:13:11;;;;;;;;;;;20.60;44.60;;;;;;3049292;19;4948;-70
2023/04/25 03:14:12;;;;;;;;;;;20.60;44.60;;;;;;3050661;19;4560;-69
2023/04/25 03:15:13;;;;;;;;;;;20.60;44.70;;;;;;3050466;19;5350;-70
2023/04/25 03:16:13;;;;;;;;;;;20.60;44.60;;;;;;3050328;19;4973;-70
2023/04/25 03:17:14;;;;;;;;;;;20.60;44.60;;;;;;3051247;19;4536;-68
2023/04/25 03:18:16;;;;;;;;;;;20.60;44.60;;;;;;3050102;19;5425;-69
2023/04/25 03:19:17;;;;;;;;;;;20.60;44.50;;;;;;3050843;19;5038;-70
2023/04/25 03:20:17;;;;;;;;;;;20.60;44.60;;;;;;3050325;19;5465;-69
2023/04/25 03:21:18;;;;;;;;;;;20.60;44.60;;;;;;3049090;19;5022;-68
2023/04/25 03:22:19;;;;;;;;;;;20.60;44.60;;;;;;3049032;19;4498;-68
2023/04/25 03:23:19;;;;;;;;;;;20.60;44.60;;;;;;3049460;19;4911;-70
2023/04/25 03:24:20;;;;;;;;;;;20.60;44.50;;;;;;3050971;19;4374;-70
2023/04/25 03:25:21;;;;;;;;;;;20.60;44.50;;;;;;3050279;19;4499;-69
2023/04/25 03:26:21;;;;;;;;;;;20.60;44.60;;;;;;3050397;19;4603;-69
2023/04/25 03:27:22;;;;;;;;;;;20.60;44.50;;;;;;3050519;19;4418;-70
2023/04/25 03:28:23;;;;;;;;;;;20.60;44.50;;;;;;3050265;19;5056;-70
2023/04/25 03:29:26;;;;;;;;;;;20.60;44.70;;;;;;3050691;19;4987;-69
2023/04/25 03:30:26;;;;;;;;;;;20.60;44.60;;;;;;3050535;19;4928;-68
2023/04/25 03:31:27;;;;;;;;;;;20.60;44.60;;;;;;3050864;19;4528;-70
2023/04/25 03:32:28;;;;;;;;;;;20.50;44.60;;;;;;3051080;19;4940;-70
2023/04/25 03:33:29;;;;;;;;;;;20.60;44.60;;;;;;3050436;19;5084;-69
2023/04/25 03:34:29;;;;;;;;;;;20.70;44.60;;;;;;3050050;19;5020;-69
2023/04/25 03:35:30;;;;;;;;;;;20.60;44.30;;;;;;3049785;19;4444;-70
2023/04/25 03:36:30;;;;;;;;;;;20.60;44.20;;;;;;3048830;19;4985;-69
2023/04/25 03:37:31;;;;;;;;;;;20.60;44.20;;;;;;3050367;19;5346;-69
2023/04/25 03:38:32;;;;;;;;;;;20.70;44.10;;;;;;3050486;19;4542;-69
2023/04/25 03:39:32;;;;;;;;;;;20.80;44.00;;;;;;3051338;19;4573;-69
2023/04/25 03:40:33;;;;;;;;;;;20.90;43.90;;;;;;3049508;19;4991;-70
2023/04/25 03:41:34;;;;;;;;;;;21.00;43.60;;;;;;3049410;19;4517;-68
2023/04/25 03:42:34;;;;;;;;;;;21.10;43.40;;;;;;3050384;19;5090;-70
2023/04/25 03:43:35;;;;;;;;;;;21.10;43.20;;;;;;3049556;19;4948;-69
2023/04/25 03:44:36;;;;;;;;;;;21.20;43.00;;;;;;3050307;19;4946;-69
2023/04/25 03:45:36;;;;;;;;;;;21.20;43.00;;;;;;3051961;19;4446;-69
2023/04/25 03:46:37;;;;;;;;;;;21.20;42.80;;;;;;3053949;19;5106;-70
2023/04/25 03:47:37;;;;;;;;;;;21.30;42.80;;;;;;3053364;19;4957;-70
2023/04/25 03:48:38;;;;;;;;;;;20.90;42.60;;;;;;3052473;19;4397;-70
2023/04/25 03:49:39;;;;;;;;;;;21.30;42.70;;;;;;3054607;19;4966;-69
2023/04/25 03:50:39;;;;;;;;;;;21.30;42.70;;;;;;3052577;19;5359;-69
2023/04/25 03:51:40;;;;;;;;;;;21.20;42.60;;;;;;3053701;19;5394;-68
2023/04/25 03:52:42;;;;;;;;;;;21.20;42.70;;;;;;3053275;19;5373;-68
2023/04/25 03:53:43;;;;;;;;;;;21.20;42.60;;;;;;3052607;19;4933;-69
2023/04/25 03:54:43;;;;;;;;;;;21.30;42.70;;;;;;3052849;19;4947;-69
2023/04/25 03:55:45;;;;;;;;;;;21.30;42.50;;;;;;3053760;19;4905;-69
2023/04/25 03:56:46;;;;;;;;;;;21.40;42.30;;;;;;3053786;19;4941;-69
2023/04/25 03:57:46;;;;;;;;;;;21.50;42.20;;;;;;3056068;19;4446;-68
2023/04/25 03:58:47;;;;;;;;;;;21.50;42.10;;;;;;3055821;19;5302;-70
2023/04/25 03:59:48;;;;;;;;;;;21.50;42.10;;;;;;3055526;19;4269;-70
2023/04/25 04:00:48;;;;;;;;;;;21.50;41.90;;;;;;3054732;19;5831;-71
2023/04/25 04:01:49;;;;;;;;;;;21.50;41.90;;;;;;3053973;19;4932;-70
2023/04/25 04:02:50;;;;;;;;;;;21.50;41.90;;;;;;3056228;19;4322;-70
2023/04/25 04:03:50;;;;;;;;;;;21.50;41.90;;;;;;3056022;19;4980;-69
2023/04/25 04:04:51;;;;;;;;;;;21.50;41.90;;;;;;3055428;19;4773;-81
2023/04/25 04:05:52;;;;;;;;;;;21.50;41.90;;;;;;3032551;19;4537;-83
2023/04/25 04:06:52;;;;;;;;;;;21.50;42.00;;;;;;3054380;19;4972;-82
2023/04/25 04:07:53;;;;;;;;;;;21.50;42.00;;;;;;3054430;19;4460;-83
2023/04/25 04:08:55;;;;;;;;;;;21.50;42.00;;;;;;3033332;19;4824;-82
2023/04/25 04:09:55;;;;;;;;;;;21.50;42.00;;;;;;3054813;19;4888;-81
2023/04/25 04:10:57;;;;;;;;;;;21.50;42.00;;;;;;3055918;19;5632;-83
2023/04/25 04:11:58;;;;;;;;;;;21.60;41.80;;;;;;3055653;19;4387;-85
2023/04/25 04:12:58;;;;;;;;;;;21.60;41.70;;;;;;3057021;19;4949;-80
2023/04/25 04:13:59;;;;;;;;;;;21.70;41.60;;;;;;3056709;19;4951;-82
2023/04/25 04:15:04;;;;;;;;;;;21.70;41.40;;;;;;3057675;19;4925;-80
2023/04/25 04:16:05;;;;;;;;;;;21.60;41.40;;;;;;3058524;19;4733;-81
2023/04/25 04:17:05;;;;;;;;;;;21.70;41.40;;;;;;3058083;19;4306;-82
2023/04/25 04:18:06;;;;;;;;;;;21.70;41.40;;;;;;3057661;19;4769;-80
2023/04/25 04:19:07;;;;;;;;;;;21.70;41.40;;;;;;3058817;19;928;-81
2023/04/25 04:20:08;;;;;;;;;;;21.70;41.50;;;;;;3059419;19;5282;-80
2023/04/25 04:21:09;;;;;;;;;;;21.60;41.50;;;;;;3060085;19;5062;-81
2023/04/25 04:22:10;;;;;;;;;;;21.60;41.30;;;;;;3060657;19;5320;-80
2023/04/25 04:23:11;;;;;;;;;;;21.60;41.40;;;;;;3062756;19;5011;-81
2023/04/25 04:24:12;;;;;;;;;;;21.70;41.40;;;;;;3063438;19;4943;-80
2023/04/25 04:25:12;;;;;;;;;;;21.60;41.40;;;;;;3074872;19;5009;-79
2023/04/25 04:26:15;;;;;;;;;;;21.60;41.40;;;;;;3075661;19;4877;-81
2023/04/25 04:27:19;;;;;;;;;;;21.60;41.40;;;;;;3075594;19;5372;-82
2023/04/25 04:28:20;;;;;;;;;;;21.60;41.40;;;;;;3075403;19;5055;-82
2023/04/25 04:29:21;;;;;;;;;;;21.60;41.40;;;;;;3075606;19;5004;-83
2023/04/25 04:30:24;;;;;;;;;;;21.60;41.40;;;;;;3075792;19;5004;-83
2023/04/25 04:31:24;;;;;;;;;;;21.60;41.40;;;;;;3075129;19;4819;-81
2023/04/25 04:32:25;;;;;;;;;;;21.60;42.10;;;;;;3075624;19;4447;-81
2023/04/25 04:33:25;;;;;;;;;;;21.60;41.40;;;;;;3076060;19;4457;-82
2023/04/25 04:34:27;;;;;;;;;;;21.60;41.40;;;;;;3075615;19;5193;-83
2023/04/25 04:35:27;;;;;;;;;;;21.60;41.40;;;;;;3075561;19;5097;-82
2023/04/25 04:36:28;;;;;;;;;;;21.50;41.30;;;;;;3075336;19;5041;-81
2023/04/25 04:37:28;;;;;;;;;;;21.50;41.40;;;;;;3074814;19;5451;-82
2023/04/25 04:38:29;;;;;;;;;;;21.50;41.40;;;;;;3073961;19;4568;-80
2023/04/25 04:39:30;;;;;;;;;;;21.50;41.40;;;;;;3073863;19;5019;-80
2023/04/25 04:40:32;;;;;;;;;;;21.50;41.40;;;;;;3073886;19;4896;-81
2023/04/25 04:41:32;;;;;;;;;;;21.50;41.40;;;;;;3073548;19;5056;-82
2023/04/25 04:42:33;;;;;;;;;;;21.50;41.40;;;;;;3073493;19;5069;-81
2023/04/25 04:43:34;;;;;;;;;;;21.40;41.30;;;;;;3072637;19;5491;-76
2023/04/25 04:44:35;;;;;;;;;;;21.50;41.40;;;;;;3062546;19;4956;-81
2023/04/25 04:45:38;;;;;;;;;;;21.40;41.40;;;;;;3060774;19;5400;-83
2023/04/25 04:46:41;;;;;;;;;;;21.40;41.60;;;;;;3059838;19;4972;-81
2023/04/25 04:47:42;;;;;;;;;;;21.40;41.70;;;;;;3059626;19;4918;-82
2023/04/25 04:48:44;;;;;;;;;;;21.50;41.50;;;;;;3057897;19;4968;-81
2023/04/25 04:49:44;;;;;;;;;;;21.50;41.50;;;;;;3056800;19;4982;-80
2023/04/25 04:50:45;;;;;;;;;;;21.60;41.40;;;;;;3055089;19;5056;-82
2023/04/25 04:51:49;;;;;;;;;;;21.60;41.20;;;;;;3058145;19;5378;-82
2023/04/25 04:52:50;;;;;;;;;;;21.60;41.10;;;;;;3062251;19;4687;-82
2023/04/25 04:53:51;;;;;;;;;;;21.60;41.00;;;;;;3061617;19;4449;-81
2023/04/25 04:54:51;;;;;;;;;;;21.60;41.00;;;;;;3060956;19;4868;-83
2023/04/25 04:55:52;;;;;;;;;;;21.60;41.00;;;;;;3058865;19;4989;-85
2023/04/25 04:56:53;;;;;;;;;;;21.70;41.10;;;;;;3059121;19;4963;-82
2023/04/25 04:57:53;;;;;;;;;;;21.70;41.10;;;;;;3059535;19;4986;-82
2023/04/25 04:58:54;;;;;;;;;;;21.70;41.00;;;;;;3059084;19;4959;-82
2023/04/25 04:59:55;;;;;;;;;;;21.70;41.10;;;;;;3059624;19;5003;-82
2023/04/25 05:00:56;;;;;;;;;;;21.70;41.00;;;;;;3057492;19;5034;-83
2023/04/25 05:01:56;;;;;;;;;;;21.70;41.00;;;;;;3055321;19;4867;-83
2023/04/25 05:02:57;;;;;;;;;;;21.70;41.00;;;;;;3058212;19;4511;-80
2023/04/25 05:04:00;;;;;;;;;;;21.70;40.90;;;;;;3058207;19;4476;-81
2023/04/25 05:05:01;;;;;;;;;;;21.70;40.90;;;;;;3058816;19;4421;-81
2023/04/25 05:06:02;;;;;;;;;;;21.70;41.00;;;;;;3057704;19;4805;-80
2023/04/25 05:07:02;;;;;;;;;;;21.70;41.00;;;;;;3056489;19;5112;-80
2023/04/25 05:08:03;;;;;;;;;;;21.70;41.00;;;;;;3055222;19;4362;-82
2023/04/25 05:09:04;;;;;;;;;;;21.60;40.90;;;;;;3053644;19;4418;-82
2023/04/25 05:10:05;;;;;;;;;;;21.50;40.90;;;;;;3053125;19;4738;-83
2023/04/25 05:11:06;;;;;;;;;;;21.60;41.00;;;;;;3052321;19;5042;-81
2023/04/25 05:12:06;;;;;;;;;;;21.60;40.90;;;;;;3053607;19;932;-82
2023/04/25 05:13:07;;;;;;;;;;;21.60;40.90;;;;;;3052530;19;4957;-82
2023/04/25 05:14:08;;;;;;;;;;;21.60;41.00;;;;;;3052533;19;5330;-81
2023/04/25 05:15:10;;;;;;;;;;;21.60;40.90;;;;;;3053310;19;1056;-74
2023/04/25 05:16:11;;;;;;;;;;;21.60;41.00;;;;;;3051793;19;4982;-72
2023/04/25 05:17:11;;;;;;;;;;;21.60;41.00;;;;;;3052334;19;5372;-73
2023/04/25 05:18:12;;;;;;;;;;;21.60;41.00;;;;;;3054021;19;4987;-71
2023/04/25 05:19:13;;;;;;;;;;;21.50;41.00;;;;;;3033415;19;4426;-73
2023/04/25 05:20:13;;;;;;;;;;;21.50;41.00;;;;;;3052773;19;4909;-73
2023/04/25 05:21:14;;;;;;;;;;;21.50;41.20;;;;;;3053610;19;4989;-72
2023/04/25 05:22:15;;;;;;;;;;;21.50;41.00;;;;;;3055224;19;5066;-72
2023/04/25 05:23:16;;;;;;;;;;;21.50;41.10;;;;;;3053970;19;4818;-73
2023/04/25 05:24:16;;;;;;;;;;;21.50;41.00;;;;;;3054337;19;4967;-72
2023/04/25 05:25:17;;;;;;;;;;;21.50;41.00;;;;;;3051045;19;5411;-73
2023/04/25 05:26:18;;;;;;;;;;;21.50;41.10;;;;;;3049619;19;4575;-73
2023/04/25 05:27:18;;;;;;;;;;;21.50;41.10;;;;;;3051386;19;4961;-74
2023/04/25 05:28:20;;;;;;;;;;;21.20;40.80;;;;;;3052359;19;4378;-73
2023/04/25 05:29:21;;;;;;;;;;;21.50;40.90;;;;;;3051973;19;4818;-74
2023/04/25 05:30:21;;;;;;;;;;;21.60;41.10;;;;;;3052951;19;4423;-73
2023/04/25 05:31:22;;;;;;;;;;;21.60;40.90;;;;;;3054398;19;5484;-74
2023/04/25 05:32:24;;;;;;;;;;;21.60;41.00;;;;;;3053926;19;4577;-74
2023/04/25 05:33:25;;;;;;;;;;;21.70;40.90;;;;;;3054429;19;4986;-74
2023/04/25 05:34:26;;;;;;;;;;;21.70;40.90;;;;;;3053660;19;4968;-73
2023/04/25 05:35:27;;;;;;;;;;;21.70;41.50;;;;;;3052452;19;4968;-75
2023/04/25 05:36:27;;;;;;;;;;;21.70;40.90;;;;;;3053174;19;4940;-75
2023/04/25 05:37:30;;;;;;;;;;;21.70;40.80;;;;;;3056693;19;4979;-76
2023/04/25 05:38:31;;;;;;;;;;;21.70;40.90;;;;;;3054216;19;5394;-75
2023/04/25 05:39:32;;;;;;;;;;;21.70;40.80;;;;;;3055536;19;4515;-77
2023/04/25 05:40:32;;;;;;;;;;;21.60;40.80;;;;;;3054234;19;5026;-78
2023/04/25 05:41:33;;;;;;;;;;;21.70;40.90;;;;;;3054185;19;4463;-76
2023/04/25 05:42:34;;;;;;;;;;;21.80;40.80;;;;;;3053363;19;4931;-75
2023/04/25 05:43:34;;;;;;;;;;;21.80;40.60;;;;;;3052087;19;4968;-76
2023/04/25 05:44:35;;;;;;;;;;;21.90;40.60;;;;;;3053079;19;4962;-77
2023/04/25 05:45:36;;;;;;;;;;;21.90;40.50;;;;;;3053640;19;4441;-77
2023/04/25 05:46:36;;;;;;;;;;;21.90;40.40;;;;;;3050597;19;5075;-80
2023/04/25 05:47:37;;;;;;;;;;;21.90;40.40;;;;;;3052685;19;4473;-80
2023/04/25 05:48:38;;;;;;;;;;;21.90;40.40;;;;;;3052504;19;4956;-80
2023/04/25 05:49:38;;;;;;;;;;;21.90;40.50;;;;;;3053078;19;4419;-81
2023/04/25 05:50:39;;;;;;;;;;;21.90;40.50;;;;;;3053333;19;5044;-83
2023/04/25 05:51:39;;;;;;;;;;;21.90;40.50;;;;;;3053528;19;4398;-82
2023/04/25 05:52:40;;;;;;;;;;;21.90;40.50;;;;;;3053114;19;5441;-82
2023/04/25 05:53:41;;;;;;;;;;;21.90;40.60;;;;;;3053906;19;4857;-82
2023/04/25 05:54:41;;;;;;;;;;;21.90;40.60;;;;;;3053018;19;4991;-81
2023/04/25 05:55:42;;;;;;;;;;;21.90;40.50;;;;;;3052141;19;4851;-78
2023/04/25 05:56:44;;;;;;;;;;;21.90;40.40;;;;;;3056133;19;5040;-81
2023/04/25 05:57:45;;;;;;;;;;;22.00;40.30;;;;;;3059405;19;5053;-80
2023/04/25 05:58:45;;;;;;;;;;;22.00;40.20;;;;;;3059741;19;4439;-79
2023/04/25 05:59:46;;;;;;;;;;;21.80;40.00;;;;;;3055728;19;4923;-80
2023/04/25 06:00:46;;;;;;;;;;;22.10;40.20;;;;;;3052680;19;4384;-82
2023/04/25 06:01:47;;;;;;;;;;;22.10;40.20;;;;;;3056976;19;4892;-81
2023/04/25 06:02:49;;;;;;;;;;;22.10;40.20;;;;;;3056833;19;5048;-80
2023/04/25 06:03:51;;;;;;;;;;;22.10;40.20;;;;;;3056249;19;4301;-83
2023/04/25 06:04:51;;;;;;;;;;;22.00;40.30;;;;;;3056335;19;4988;-80
2023/04/25 06:05:52;;;;;;;;;;;21.90;40.30;;;;;;3059828;19;4994;-80
2023/04/25 06:06:53;;;;;;;;;;;22.00;40.40;;;;;;3053521;19;5002;-82
2023/04/25 06:07:54;;;;;;;;;;;22.10;40.50;;;;;;3057070;19;4550;-81
2023/04/25 06:08:56;;;;;;;;;;;22.00;40.40;;;;;;3055585;19;4823;-82
2023/04/25 06:09:57;;;;;;;;;;;22.10;40.40;;;;;;3057842;19;4967;-82
2023/04/25 06:10:57;;;;;;;;;;;22.10;40.30;;;;;;3056876;19;5058;-80
2023/04/25 06:11:58;;;;;;;;;;;22.10;40.30;;;;;;3059457;19;4394;-80
2023/04/25 06:12:59;;;;;;;;;;;22.10;40.20;;;;;;3052935;19;4961;-88
2023/04/25 06:14:00;;;;;;;;;;;22.10;40.10;;;;;;3052983;19;5786;-90
2023/04/25 06:15:01;;;;;;;;;;;22.10;40.10;;;;;;3056535;19;4295;-90
2023/04/25 06:16:03;;;;;;;;;;;22.20;40.10;;;;;;3057340;19;4988;-90
2023/04/25 06:17:08;;;;;;;;;;;22.20;40.20;;;;;;3057343;19;4847;-90
2023/04/25 06:18:08;;;;;;;;;;;22.10;40.00;;;;;;3056474;19;4325;-91
2023/04/25 06:19:09;;;;;;;;;;;22.20;40.20;;;;;;3055781;19;4376;-91
2023/04/25 06:20:10;;;;;;;;;;;22.10;40.20;;;;;;3055885;19;4894;-91
2023/04/25 06:21:10;;;;;;;;;;;22.10;40.30;;;;;;3035667;19;4607;-89
2023/04/25 06:22:11;;;;;;;;;;;22.10;40.20;;;;;;3056031;19;4603;-91
2023/04/25 06:23:12;;;;;;;;;;;22.10;40.30;;;;;;3056733;19;1052;-90
2023/04/25 06:24:13;;;;;;;;;;;22.10;40.40;;;;;;3056541;19;4333;-87
2023/04/25 06:25:13;;;;;;;;;;;22.10;40.40;;;;;;3056262;19;4862;-89
2023/04/25 06:26:14;;;;;;;;;;;22.10;40.30;;;;;;3056534;19;4561;-90
2023/04/25 06:27:15;;;;;;;;;;;22.10;40.40;;;;;;3056365;19;4762;-90
2023/04/25 06:28:15;;;;;;;;;;;22.10;40.40;;;;;;3056131;19;5140;-89
2023/04/25 06:29:16;;;;;;;;;;;22.10;40.50;;;;;;3056764;19;4322;-88
2023/04/25 06:30:22;;;;;;;;;;;22.10;40.40;;;;;;3056414;19;4990;-89
2023/04/25 06:31:22;;;;;;;;;;;22.10;40.40;;;;;;3056677;19;4932;-89
2023/04/25 06:32:23;;;;;;;;;;;22.10;40.40;;;;;;3056018;19;4384;-91
2023/04/25 06:33:24;;;;;;;;;;;22.10;40.50;;;;;;3056569;19;4407;-88
2023/04/25 06:34:25;;;;;;;;;;;22.10;40.40;;;;;;3057789;19;5503;-89
2023/04/25 06:35:25;;;;;;;;;;;22.10;40.50;;;;;;3057543;19;5062;-90
2023/04/25 06:36:27;;;;;;;;;;;22.10;40.60;;;;;;3058851;19;4386;-89
2023/04/25 06:37:28;;;;;;;;;;;22.10;40.50;;;;;;3059043;19;5014;-88
2023/04/25 06:38:28;;;;;;;;;;;22.10;40.60;;;;;;3037677;19;4411;-90
2023/04/25 06:39:29;;;;;;;;;;;22.00;40.60;;;;;;3058369;19;4385;-90
2023/04/25 06:40:33;;;;;;;;;;;22.00;40.70;;;;;;3057633;19;4414;-89
2023/04/25 06:41:33;;;;;;;;;;;22.00;40.60;;;;;;3056783;19;5133;-89
2023/04/25 06:42:34;;;;;;;;;;;22.00;40.70;;;;;;3057612;19;4949;-90
2023/04/25 06:43:34;;;;;;;;;;;22.00;40.80;;;;;;3059257;19;5011;-89
2023/04/25 06:44:35;;;;;;;;;;;21.90;40.80;;;;;;3058045;19;4958;-90
2023/04/25 06:45:36;;;;;;;;;;;21.90;40.80;;;;;;3052402;19;5000;-76
2023/04/25 06:46:37;;;;;;;;;;;21.90;40.80;;;;;;3058273;19;4922;-77
2023/04/25 06:47:38;;;;;;;;;;;21.90;40.90;;;;;;3058823;19;4963;-76
2023/04/25 06:48:38;;;;;;;;;;;21.90;40.80;;;;;;3060024;19;4960;-77
2023/04/25 06:49:39;;;;;;;;;;;21.90;41.50;;;;;;3060465;19;4456;-77
2023/04/25 06:50:40;;;;;;;;;;;21.80;40.90;;;;;;3060861;19;4814;-77
2023/04/25 06:51:40;;;;;;;;;;;21.90;41.00;;;;;;3061158;19;4963;-77
2023/04/25 06:52:41;;;;;;;;;;;21.90;41.00;;;;;;3061790;19;4385;-75
2023/04/25 06:53:42;;;;;;;;;;;21.80;41.00;;;;;;3069341;19;5318;-77
2023/04/25 06:54:45;;;;;;;;;;;21.80;41.00;;;;;;3073421;19;4968;-77
2023/04/25 06:55:46;;;;;;;;;;;21.80;41.00;;;;;;3073431;19;4989;-72
2023/04/25 06:56:47;;;;;;;;;;;21.80;41.00;;;;;;3072606;19;5548;-74
2023/04/25 06:57:47;;;;;;;;;;;21.80;41.00;;;;;;3072301;19;4360;-72
2023/04/25 06:58:48;;;;;;;;;;;21.90;40.90;;;;;;3071720;19;4832;-72
2023/04/25 06:59:49;;;;;;;;;;;21.90;40.90;;;;;;3072461;19;4376;-70
2023/04/25 07:00:49;;;;;;;;;;;21.90;41.70;;;;;;3072039;19;5320;-73
2023/04/25 07:01:50;;;;;;;;;;;21.90;40.80;;;;;;3072889;19;5043;-73
2023/04/25 07:02:51;;;;;;;;;;;22.00;40.80;;;;;;3072117;19;5189;-72
2023/04/25 07:03:51;;;;;;;;;;;22.00;40.90;;;;;;3073304;19;4833;-73
2023/04/25 07:04:52;;;;;;;;;;;22.00;40.70;;;;;;3072989;19;4942;-73
2023/04/25 07:05:52;;;;;;;;;;;22.00;40.80;;;;;;3072570;19;4846;-73
2023/04/25 07:06:54;;;;;;;;;;;22.00;40.70;;;;;;3072766;19;5054;-73
2023/04/25 07:07:55;;;;;;;;;;;22.00;40.60;;;;;;3072908;19;4945;-74
2023/04/25 07:08:56;;;;;;;;;;;22.10;40.70;;;;;;3071998;19;4943;-72
2023/04/25 07:09:56;;;;;;;;;;;22.00;40.50;;;;;;3072527;19;4973;-73
2023/04/25 07:10:57;;;;;;;;;;;22.00;40.60;;;;;;3072747;19;4975;-72
2023/04/25 07:11:57;;;;;;;;;;;22.00;40.70;;;;;;3071485;19;4363;-73
2023/04/25 07:12:58;;;;;;;;;;;22.10;40.70;;;;;;3066058;19;4946;-72
2023/04/25 07:13:59;;;;;;;;;;;22.00;40.80;;;;;;3061507;19;4852;-73
2023/04/25 07:15:05;;;;;;;;;;;22.00;40.90;;;;;;3062676;19;5072;-73
2023/04/25 07:16:06;;;;;;;;;;;22.00;41.00;;;;;;3059950;19;5173;-73
2023/04/25 07:17:06;;;;;;;;;;;22.00;40.90;;;;;;3059150;19;4912;-72
2023/04/25 07:18:07;;;;;;;;;;;22.00;41.20;;;;;;3058280;19;4948;-72
2023/04/25 07:19:08;;;;;;;;;;;21.90;41.20;;;;;;3058371;19;5020;-72
2023/04/25 07:20:09;;;;;;;;;;;21.90;41.20;;;;;;3050296;19;5174;-75
2023/04/25 07:21:10;;;;;;;;;;;21.90;41.20;;;;;;3062169;19;4882;-74
2023/04/25 07:22:11;;;;;;;;;;;21.90;41.20;;;;;;3060669;19;5055;-74
2023/04/25 07:23:11;;;;;;;;;;;21.90;41.20;;;;;;3059925;19;849;-75
2023/04/25 07:24:12;;;;;;;;;;;21.90;41.30;;;;;;3059171;19;4874;-73
2023/04/25 07:26:04;;;;;;;;;;;21.90;41.50;;;;;;3048108;19;1634;-73
2023/04/25 07:27:27;;;;;;;;;;;21.90;41.50;;;;;;2900804;19;2003891;-77
2023/04/25 07:28:31;;;;;;;;;;;21.90;41.40;;;;;;3015419;19;4461;-80
2023/04/25 07:29:32;;;;;;;;;;;21.90;41.50;;;;;;3023843;19;4619;-81
2023/04/25 07:30:34;;;;;;;;;;;21.90;41.50;;;;;;3024580;19;4403;-80
2023/04/25 07:31:35;;;;;;;;;;;22.30;41.80;;;;;;3026228;19;4451;-75
2023/04/25 07:32:36;;;;;;;;;;;21.80;41.50;;;;;;3032153;19;4870;-75
2023/04/25 07:33:37;;;;;;;;;;;21.80;41.80;;;;;;3053966;19;4985;-74
2023/04/25 07:34:38;;;;;;;;;;;21.80;41.80;;;;;;3056596;19;4974;-75
2023/04/25 07:35:39;;;;;;;;;;;21.80;41.70;;;;;;3055744;19;4952;-75
2023/04/25 07:36:40;;;;;;;;;;;21.80;41.80;;;;;;3056134;19;4612;-76
2023/04/25 07:37:40;;;;;;;;;;;21.80;41.70;;;;;;3037058;19;5502;-75
2023/04/25 07:38:41;;;;;;;;;;;21.70;41.70;;;;;;3055421;19;4514;-76
2023/04/25 07:39:42;;;;;;;;;;;21.70;41.90;;;;;;3053999;19;4491;-76
2023/04/25 07:40:42;;;;;;;;;;;21.80;42.30;;;;;;3052660;19;4420;-76
2023/04/25 07:41:43;;;;;;;;;;;21.70;42.30;;;;;;3053705;19;4910;-71
2023/04/25 07:42:44;;;;;;;;;;;21.70;42.60;;;;;;3056373;19;4768;-92